createdAt,value
2018-09-05T00:00:58.415Z,0.00
2018-09-05T00:01:58.423Z,0.00
2018-09-05T00:02:58.433Z,0.00
2018-09-05T00:03:58.430Z,0.00
2018-09-05T00:04:58.457Z,0.00
2018-09-05T00:05:58.431Z,0.00
2018-09-05T00:06:58.420Z,0.00
2018-09-05T00:07:58.455Z,0.00
2018-09-05T00:08:58.456Z,0.00
2018-09-05T00:09:58.437Z,0.00
2018-09-05T00:10:58.447Z,0.00
2018-09-05T00:11:58.437Z,0.00
2018-09-05T00:12:58.453Z,0.00
2018-09-05T00:13:58.463Z,0.00
2018-09-05T00:14:59.135Z,0.38
2018-09-05T00:15:58.445Z,0.48
2018-09-05T00:16:58.472Z,0.96
2018-09-05T00:17:58.455Z,0.86
2018-09-05T00:18:58.466Z,1.34
2018-09-05T00:19:58.451Z,1.15
2018-09-05T00:20:58.474Z,1.63
2018-09-05T00:21:58.474Z,2.20
2018-09-05T00:22:58.460Z,2.20
2018-09-05T00:23:58.467Z,2.01
2018-09-05T00:24:58.471Z,2.11
2018-09-05T00:25:58.483Z,2.11
2018-09-05T00:26:58.479Z,2.50
2018-09-05T00:27:59.135Z,2.59
2018-09-05T00:28:58.506Z,2.88
2018-09-05T00:29:58.496Z,2.69
2018-09-05T00:30:58.495Z,2.50
2018-09-05T00:31:58.490Z,2.11
2018-09-05T00:32:58.504Z,2.20
2018-09-05T00:33:58.500Z,2.30
2018-09-05T00:34:58.500Z,2.40
2018-09-05T00:35:58.505Z,2.78
2018-09-05T00:36:58.520Z,2.97
2018-09-05T00:37:58.519Z,3.36
2018-09-05T00:38:58.495Z,3.17
2018-09-05T00:39:58.504Z,4.32
2018-09-05T00:40:58.602Z,5.28
2018-09-05T00:41:58.561Z,6.72
2018-09-05T00:42:58.511Z,7.97
2018-09-05T00:43:58.532Z,9.12
2018-09-05T00:44:58.514Z,10.94
2018-09-05T00:45:58.528Z,11.43
2018-09-05T00:46:58.519Z,11.43
2018-09-05T00:47:58.523Z,11.81
2018-09-05T00:48:58.534Z,11.71
2018-09-05T00:49:58.528Z,11.23
2018-09-05T00:50:58.541Z,11.43
2018-09-05T00:51:58.569Z,12.29
2018-09-05T00:52:58.567Z,12.38
2018-09-05T00:53:58.565Z,11.81
2018-09-05T00:54:58.547Z,11.23
2018-09-05T00:55:58.560Z,11.52
2018-09-05T00:56:58.555Z,10.75
2018-09-05T00:57:58.556Z,10.66
2018-09-05T00:58:58.650Z,9.70
2018-09-05T00:59:58.557Z,9.41
2018-09-05T01:00:58.588Z,9.03
2018-09-05T01:01:58.622Z,8.54
2018-09-05T01:02:58.570Z,8.25
2018-09-05T01:03:58.581Z,7.68
2018-09-05T01:04:58.580Z,7.48
2018-09-05T01:05:58.565Z,7.58
2018-09-05T01:06:58.578Z,7.01
2018-09-05T01:07:58.568Z,6.81
2018-09-05T01:08:58.568Z,6.91
2018-09-05T01:09:58.565Z,7.10
2018-09-05T01:10:58.635Z,7.58
2018-09-05T01:11:58.580Z,7.29
2018-09-05T01:12:58.582Z,7.87
2018-09-05T01:13:58.671Z,8.06
2018-09-05T01:14:58.610Z,8.54
2018-09-05T01:15:58.610Z,8.83
2018-09-05T01:16:58.608Z,9.21
2018-09-05T01:17:58.624Z,9.12
2018-09-05T01:18:58.599Z,10.08
2018-09-05T01:19:58.603Z,10.46
2018-09-05T01:20:58.607Z,10.94
2018-09-05T01:21:59.167Z,14.30
2018-09-05T01:22:58.606Z,14.78
2018-09-05T01:23:58.612Z,16.50
2018-09-05T01:24:58.642Z,17.27
2018-09-05T01:25:58.643Z,18.14
2018-09-05T01:26:58.611Z,19.30
2018-09-05T01:27:58.618Z,19.96
2018-09-05T01:28:58.620Z,20.25
2018-09-05T01:29:58.626Z,21.11
2018-09-05T01:30:58.632Z,21.31
2018-09-05T01:31:58.629Z,20.73
2018-09-05T01:32:58.652Z,21.02
2018-09-05T01:33:58.680Z,21.31
2018-09-05T01:34:58.790Z,20.15
2018-09-05T01:35:58.644Z,20.15
2018-09-05T01:36:58.668Z,21.41
2018-09-05T01:37:58.649Z,21.59
2018-09-05T01:38:58.656Z,22.38
2018-09-05T01:39:58.670Z,20.54
2018-09-05T01:40:58.688Z,19.87
2018-09-05T01:41:58.656Z,19.58
2018-09-05T01:42:58.663Z,19.10
2018-09-05T01:43:58.664Z,19.29
2018-09-05T01:44:58.656Z,19.38
2018-09-05T01:45:58.688Z,19.38
2018-09-05T01:46:58.668Z,19.10
2018-09-05T01:47:58.677Z,18.91
2018-09-05T01:48:58.680Z,18.24
2018-09-05T01:49:58.686Z,18.14
2018-09-05T01:50:58.676Z,17.94
2018-09-05T01:51:58.690Z,16.89
2018-09-05T01:52:58.794Z,16.31
2018-09-05T01:53:58.699Z,15.64
2018-09-05T01:54:58.677Z,15.45
2018-09-05T01:55:58.695Z,14.49
2018-09-05T01:56:58.683Z,14.58
2018-09-05T01:57:58.688Z,13.71
2018-09-05T01:58:58.694Z,12.86
2018-09-05T01:59:58.715Z,12.57
2018-09-05T02:00:58.714Z,11.90
2018-09-05T02:01:58.699Z,11.60
2018-09-05T02:02:58.717Z,11.90
2018-09-05T02:03:58.709Z,11.71
2018-09-05T02:04:58.706Z,11.51
2018-09-05T02:05:58.796Z,11.22
2018-09-05T02:06:59.174Z,11.99
2018-09-05T02:07:58.713Z,12.29
2018-09-05T02:08:58.725Z,12.28
2018-09-05T02:09:58.760Z,12.18
2018-09-05T02:10:58.715Z,12.47
2018-09-05T02:11:58.723Z,12.57
2018-09-05T02:12:58.737Z,13.43
2018-09-05T02:13:58.734Z,12.66
2018-09-05T02:14:58.757Z,12.66
2018-09-05T02:15:58.750Z,12.18
2018-09-05T02:16:58.746Z,12.37
2018-09-05T02:17:58.735Z,12.08
2018-09-05T02:26:09.599Z,10.93
2018-09-05T02:27:08.615Z,10.93
2018-09-05T02:28:06.601Z,10.93
2018-09-05T02:29:04.099Z,10.84
2018-09-05T02:30:04.102Z,11.03
2018-09-05T02:31:04.102Z,10.93
2018-09-05T02:32:03.334Z,11.13
2018-09-05T02:33:03.391Z,11.51
2018-09-05T02:34:03.308Z,11.60
2018-09-05T02:35:03.312Z,11.99
2018-09-05T02:36:03.330Z,11.90
2018-09-05T02:37:03.314Z,11.90
2018-09-05T02:38:03.325Z,11.90
2018-09-05T02:39:03.338Z,11.99
2018-09-05T02:40:03.341Z,11.99
2018-09-05T02:41:03.332Z,12.37
2018-09-05T02:42:03.337Z,12.08
2018-09-05T02:43:03.326Z,11.90
2018-09-05T02:44:04.099Z,12.08
2018-09-05T02:45:03.341Z,12.28
2018-09-05T02:46:03.354Z,12.28
2018-09-05T02:47:04.098Z,12.57
2018-09-05T02:48:03.450Z,12.18
2018-09-05T02:49:03.345Z,12.76
2018-09-05T02:50:03.401Z,12.47
2018-09-05T02:51:03.358Z,12.85
2018-09-05T02:52:03.362Z,13.43
2018-09-05T02:53:03.414Z,13.62
2018-09-05T02:54:03.356Z,13.53
2018-09-05T02:55:03.381Z,13.71
2018-09-05T02:56:03.375Z,13.24
2018-09-05T02:57:03.364Z,12.57
2018-09-05T02:58:03.403Z,13.14
2018-09-05T02:59:03.367Z,12.57
2018-09-05T03:00:03.373Z,12.66
2018-09-05T03:01:03.436Z,13.33
2018-09-05T03:02:03.390Z,13.53
2018-09-05T03:03:03.384Z,13.71
2018-09-05T03:04:03.380Z,13.33
2018-09-05T03:05:03.384Z,13.04
2018-09-05T03:06:03.400Z,13.33
2018-09-05T03:07:03.383Z,12.57
2018-09-05T03:08:03.392Z,13.04
2018-09-05T03:09:03.394Z,12.95
2018-09-05T03:10:03.397Z,13.14
2018-09-05T03:11:03.394Z,13.04
2018-09-05T03:12:03.402Z,12.47
2018-09-05T03:13:03.407Z,12.76
2018-09-05T03:14:03.406Z,12.47
2018-09-05T03:15:03.399Z,12.57
2018-09-05T03:16:03.414Z,12.76
2018-09-05T03:17:03.413Z,13.24
2018-09-05T03:18:03.414Z,12.76
2018-09-05T03:19:04.109Z,13.32
2018-09-05T03:20:03.421Z,13.62
2018-09-05T03:21:03.418Z,13.71
2018-09-05T03:22:03.421Z,13.91
2018-09-05T03:23:03.434Z,13.43
2018-09-05T03:24:03.437Z,12.76
2018-09-05T03:25:03.420Z,13.04
2018-09-05T03:26:03.433Z,12.37
2018-09-05T03:27:03.437Z,11.99
2018-09-05T03:28:03.478Z,12.27
2018-09-05T03:29:03.430Z,11.90
2018-09-05T03:30:03.459Z,11.80
2018-09-05T03:31:03.446Z,11.69
2018-09-05T03:32:03.474Z,11.70
2018-09-05T03:33:03.486Z,11.79
2018-09-05T03:34:03.447Z,11.41
2018-09-05T03:35:03.453Z,11.32
2018-09-05T03:36:03.458Z,11.41
2018-09-05T03:37:03.461Z,11.22
2018-09-05T03:38:03.554Z,11.90
2018-09-05T03:39:03.459Z,11.51
2018-09-05T03:40:03.460Z,11.80
2018-09-05T03:41:03.468Z,12.27
2018-09-05T03:42:03.452Z,12.47
2018-09-05T03:43:03.473Z,12.76
2018-09-05T03:44:03.506Z,13.04
2018-09-05T03:45:03.640Z,12.75
2018-09-05T03:46:03.474Z,13.13
2018-09-05T03:47:03.502Z,12.76
2018-09-05T03:48:03.479Z,13.42
2018-09-05T03:49:03.499Z,13.14
2018-09-05T03:50:03.479Z,13.23
2018-09-05T03:51:03.480Z,12.65
2018-09-05T03:52:03.491Z,12.85
2018-09-05T03:53:03.488Z,12.37
2018-09-05T03:54:03.483Z,12.37
2018-09-05T03:55:03.670Z,12.37
2018-09-05T03:56:03.515Z,12.18
2018-09-05T03:57:03.494Z,11.69
2018-09-05T03:58:03.528Z,10.83
2018-09-05T03:59:03.530Z,10.83
2018-09-05T04:00:03.516Z,10.55
2018-09-05T04:01:03.509Z,10.26
2018-09-05T04:02:03.517Z,9.88
2018-09-05T04:03:03.506Z,9.39
2018-09-05T04:04:03.521Z,9.68
2018-09-05T04:05:03.549Z,9.97
2018-09-05T04:06:03.516Z,9.20
2018-09-05T04:07:03.509Z,9.20
2018-09-05T04:08:03.605Z,9.49
2018-09-05T04:09:03.515Z,9.11
2018-09-05T04:10:03.530Z,8.82
2018-09-05T04:11:03.522Z,9.11
2018-09-05T04:12:03.532Z,9.01
2018-09-05T04:13:03.622Z,9.39
2018-09-05T04:14:03.547Z,9.11
2018-09-05T04:15:03.537Z,9.11
2018-09-05T04:16:03.543Z,9.49
2018-09-05T04:17:03.554Z,9.11
2018-09-05T04:18:03.540Z,8.82
2018-09-05T04:19:03.541Z,8.62
2018-09-05T04:20:03.553Z,8.62
2018-09-05T04:21:03.540Z,7.67
2018-09-05T04:22:03.599Z,7.96
2018-09-05T04:23:03.583Z,7.29
2018-09-05T04:24:03.595Z,7.18
2018-09-05T04:25:03.560Z,6.90
2018-09-05T04:26:04.139Z,6.81
2018-09-05T04:27:03.566Z,7.09
2018-09-05T04:28:03.598Z,6.99
2018-09-05T04:29:03.569Z,7.38
2018-09-05T04:30:03.595Z,7.29
2018-09-05T04:31:03.570Z,7.67
2018-09-05T04:32:03.590Z,7.19
2018-09-05T04:33:03.569Z,6.81
2018-09-05T04:34:03.572Z,6.81
2018-09-05T04:35:03.615Z,6.90
2018-09-05T04:36:03.582Z,6.90
2018-09-05T04:37:03.594Z,6.81
2018-09-05T04:38:03.588Z,7.19
2018-09-05T04:39:03.638Z,6.52
2018-09-05T04:40:03.592Z,6.62
2018-09-05T04:41:03.595Z,6.81
2018-09-05T04:42:03.588Z,7.19
2018-09-05T04:43:03.617Z,7.19
2018-09-05T04:44:03.589Z,6.90
2018-09-05T04:45:03.634Z,6.90
2018-09-05T04:46:03.617Z,6.71
2018-09-05T04:47:03.616Z,6.81
2018-09-05T04:48:03.622Z,6.81
2018-09-05T04:49:04.150Z,6.90
2018-09-05T04:50:03.615Z,6.99
2018-09-05T04:51:03.607Z,6.99
2018-09-05T04:52:03.632Z,6.99
2018-09-05T04:53:03.605Z,6.99
2018-09-05T04:54:03.615Z,6.90
2018-09-05T04:55:03.617Z,6.81
2018-09-05T04:56:03.636Z,6.81
2018-09-05T04:57:03.628Z,6.52
2018-09-05T04:58:03.622Z,6.62
2018-09-05T04:59:03.635Z,6.62
2018-09-05T05:00:03.686Z,6.62
2018-09-05T05:01:03.631Z,6.42
2018-09-05T05:02:03.639Z,6.71
2018-09-05T05:03:03.666Z,6.90
2018-09-05T05:04:03.658Z,7.19
2018-09-05T05:05:03.685Z,7.29
2018-09-05T05:06:03.655Z,7.67
2018-09-05T05:07:03.649Z,8.34
2018-09-05T05:08:03.670Z,9.11
2018-09-05T05:09:03.644Z,9.01
2018-09-05T05:10:03.664Z,9.30
2018-09-05T05:11:03.660Z,9.49
2018-09-05T05:12:03.656Z,9.68
2018-09-05T05:13:03.647Z,10.45
2018-09-05T05:14:03.659Z,11.51
2018-09-05T05:15:03.704Z,12.18
2018-09-05T05:16:03.672Z,12.18
2018-09-05T05:17:03.669Z,13.62
2018-09-05T05:18:03.677Z,14.29
2018-09-05T05:19:03.676Z,14.77
2018-09-05T05:20:03.665Z,15.35
2018-09-05T05:21:03.697Z,17.07
2018-09-05T05:22:03.698Z,19.09
2018-09-05T05:23:03.700Z,20.34
2018-09-05T05:24:03.687Z,20.91
2018-09-05T05:25:03.756Z,23.50
2018-09-05T05:26:03.688Z,24.37
2018-09-05T05:27:03.700Z,26.67
2018-09-05T05:28:03.695Z,27.82
2018-09-05T05:29:03.711Z,28.97
2018-09-05T05:30:03.751Z,30.41
2018-09-05T05:31:03.713Z,31.38
2018-09-05T05:32:03.741Z,33.31
2018-09-05T05:33:03.697Z,36.86
2018-09-05T05:34:03.754Z,37.91
2018-09-05T05:35:03.754Z,44.37
2018-09-05T05:36:03.715Z,55.63
2018-09-05T05:37:03.721Z,63.67
2018-09-05T05:38:03.743Z,71.40
2018-09-05T05:39:03.707Z,77.08
2018-09-05T05:40:03.761Z,81.12
2018-09-05T05:41:03.722Z,85.39
2018-09-05T05:42:03.724Z,90.16
2018-09-05T05:43:03.735Z,95.26
2018-09-05T05:44:03.751Z,97.33
2018-09-05T05:45:03.727Z,98.68
2018-09-05T05:46:03.788Z,99.99
2018-09-05T05:47:03.763Z,99.99
2018-09-05T05:48:03.738Z,99.99
2018-09-05T05:49:03.767Z,99.99
2018-09-05T05:50:04.677Z,99.99
2018-09-05T05:51:03.751Z,99.99
2018-09-05T05:52:03.751Z,99.99
2018-09-05T05:53:03.738Z,99.99
2018-09-05T05:54:03.748Z,99.99
2018-09-05T05:55:03.951Z,99.99
2018-09-05T05:56:03.759Z,99.99
2018-09-05T05:57:03.758Z,99.99
2018-09-05T05:58:03.755Z,99.99
2018-09-05T05:59:03.758Z,99.99
2018-09-05T06:00:03.761Z,99.99
2018-09-05T06:01:03.854Z,99.99
2018-09-05T06:02:03.792Z,99.99
2018-09-05T06:03:03.771Z,99.99
2018-09-05T06:04:03.801Z,99.99
2018-09-05T06:05:03.813Z,99.99
2018-09-05T06:06:03.843Z,99.99
2018-09-05T06:07:03.805Z,99.99
2018-09-05T06:08:03.789Z,99.99
2018-09-05T06:09:03.790Z,99.99
2018-09-05T06:10:03.827Z,99.99
2018-09-05T06:11:03.833Z,99.99
2018-09-05T06:12:03.800Z,99.99
2018-09-05T06:13:03.803Z,99.99
2018-09-05T06:14:04.688Z,99.99
2018-09-05T06:15:03.810Z,99.99
2018-09-05T06:16:04.791Z,99.99
2018-09-05T06:17:03.842Z,99.99
2018-09-05T06:18:03.923Z,99.99
2018-09-05T06:19:03.828Z,99.99
2018-09-05T06:20:03.936Z,99.99
2018-09-05T06:21:03.924Z,99.99
2018-09-05T06:22:03.862Z,99.99
2018-09-05T06:23:03.884Z,99.99
2018-09-05T06:24:03.905Z,99.80
2018-09-05T06:25:03.851Z,98.83
2018-09-05T06:26:03.865Z,98.88
2018-09-05T06:27:03.948Z,99.02
2018-09-05T06:28:03.897Z,97.71
2018-09-05T06:29:03.859Z,96.16
2018-09-05T06:30:03.991Z,95.82
2018-09-05T06:31:04.035Z,96.16
2018-09-05T06:32:03.984Z,97.81
2018-09-05T06:33:03.880Z,99.60
2018-09-05T06:34:03.906Z,98.83
2018-09-05T06:35:03.890Z,96.41
2018-09-05T06:36:03.903Z,94.17
2018-09-05T06:37:03.897Z,95.14
2018-09-05T06:38:03.943Z,91.89
2018-09-05T06:39:03.986Z,90.38
2018-09-05T06:40:03.928Z,88.83
2018-09-05T06:41:03.938Z,88.48
2018-09-05T06:42:03.940Z,87.91
2018-09-05T06:43:03.942Z,89.85
2018-09-05T06:44:04.002Z,88.87
2018-09-05T06:45:03.989Z,87.81
2018-09-05T06:46:04.011Z,86.35
2018-09-05T06:47:03.954Z,86.00
2018-09-05T06:48:04.034Z,86.19
2018-09-05T06:49:03.975Z,85.90
2018-09-05T06:50:04.116Z,85.81
2018-09-05T06:51:04.067Z,83.81
2018-09-05T06:52:04.018Z,84.78
2018-09-05T06:53:04.011Z,84.55
2018-09-05T06:54:04.075Z,85.86
2018-09-05T06:55:04.707Z,86.01
2018-09-05T06:56:04.059Z,87.41
2018-09-05T06:57:04.042Z,85.77
2018-09-05T06:58:04.086Z,84.79
2018-09-05T06:59:04.075Z,86.21
2018-09-05T07:00:04.128Z,85.57
2018-09-05T07:01:04.392Z,83.71
2018-09-05T07:02:04.162Z,83.17
2018-09-05T07:03:04.156Z,81.85
2018-09-05T07:04:04.149Z,79.61
2018-09-05T07:05:04.713Z,81.12
2018-09-05T07:06:04.148Z,81.57
2018-09-05T07:07:04.227Z,82.85
2018-09-05T07:08:04.227Z,85.58
2018-09-05T07:09:04.135Z,83.09
2018-09-05T07:10:04.166Z,81.63
2018-09-05T07:11:04.147Z,81.18
2018-09-05T07:12:04.188Z,79.61
2018-09-05T07:13:04.192Z,79.96
2018-09-05T07:14:04.188Z,79.28
2018-09-05T07:15:04.183Z,79.28
2018-09-05T07:16:04.202Z,80.11
2018-09-05T07:17:04.210Z,79.57
2018-09-05T07:18:04.520Z,78.07
2018-09-05T07:19:04.326Z,78.20
2018-09-05T07:20:04.327Z,77.23
2018-09-05T07:21:07.175Z,77.17
2018-09-05T07:22:04.302Z,77.68
2018-09-05T07:23:04.252Z,78.59
2018-09-05T07:24:04.294Z,76.97
2018-09-05T07:25:04.382Z,79.33
2018-09-05T07:26:04.352Z,78.63
2018-09-05T07:27:04.306Z,76.43
2018-09-05T07:28:04.311Z,75.14
2018-09-05T07:29:04.364Z,76.41
2018-09-05T07:30:04.368Z,75.59
2018-09-05T07:32:58.465Z,74.76
2018-09-05T07:33:37.820Z,72.94
2018-09-05T07:34:36.637Z,71.67
2018-09-05T07:35:36.716Z,74.39
2018-09-05T07:36:36.617Z,76.30
2018-09-05T07:37:36.629Z,75.75
2018-09-05T07:38:37.390Z,74.78
2018-09-05T07:39:37.417Z,76.50
2018-09-05T07:40:36.780Z,76.30
2018-09-05T07:41:36.765Z,76.40
2018-09-05T07:42:36.719Z,75.46
2018-09-05T07:43:36.751Z,73.88
2018-09-05T07:44:36.728Z,73.39
2018-09-05T07:45:36.695Z,73.35
2018-09-05T07:46:37.405Z,73.97
2018-09-05T07:47:36.788Z,72.12
2018-09-05T07:48:36.898Z,73.16
2018-09-05T07:49:36.796Z,74.72
2018-09-05T07:50:36.812Z,76.04
2018-09-05T07:51:36.806Z,74.91
2018-09-05T07:52:36.849Z,74.39
2018-09-05T07:53:36.903Z,74.82
2018-09-05T07:54:36.828Z,73.13
2018-09-05T07:55:37.332Z,72.41
2018-09-05T07:56:36.995Z,72.80
2018-09-05T07:57:36.972Z,76.34
2018-09-05T07:58:36.879Z,74.30
2018-09-05T07:59:37.160Z,73.56
2018-09-05T08:00:36.902Z,72.09
2018-09-05T08:01:37.033Z,71.70
2018-09-05T08:02:37.169Z,70.21
2018-09-05T08:03:36.932Z,73.00
2018-09-05T08:04:36.908Z,71.80
2018-09-05T08:05:37.408Z,71.96
2018-09-05T08:06:36.995Z,70.73
2018-09-05T08:07:37.017Z,71.57
2018-09-05T08:08:37.020Z,73.74
2018-09-05T08:09:36.992Z,73.82
2018-09-05T08:10:37.183Z,73.66
2018-09-05T08:11:37.038Z,70.70
2018-09-05T08:12:37.033Z,69.21
2018-09-05T08:13:37.022Z,68.00
2018-09-05T08:14:37.073Z,67.64
2018-09-05T08:15:37.050Z,67.51
2018-09-05T08:16:37.100Z,68.85
2018-09-05T08:17:37.229Z,70.34
2018-09-05T08:18:37.424Z,71.00
2018-09-05T08:19:37.202Z,70.25
2018-09-05T08:21:37.146Z,70.02
2018-09-05T08:22:37.944Z,68.49
2018-09-05T08:23:37.666Z,69.14
2018-09-05T08:24:37.375Z,72.41
2018-09-05T08:25:37.249Z,72.78
2018-09-05T08:26:37.246Z,70.54
2018-09-05T08:27:37.255Z,67.97
2018-09-05T08:28:37.242Z,70.34
2018-09-05T08:29:37.262Z,70.41
2018-09-05T08:30:37.263Z,69.01
2018-09-05T08:31:37.287Z,68.16
2018-09-05T08:32:37.416Z,68.29
2018-09-05T08:33:37.320Z,68.16
2018-09-05T08:34:37.387Z,67.38
2018-09-05T08:35:37.534Z,66.56
2018-09-05T08:36:37.636Z,65.78
2018-09-05T08:37:38.120Z,63.23
2018-09-05T08:38:37.390Z,64.18
2018-09-05T08:39:37.359Z,65.49
2018-09-05T08:40:37.414Z,67.12
2018-09-05T08:41:37.401Z,68.23
2018-09-05T08:42:37.447Z,68.88
2018-09-05T08:43:37.624Z,68.33
2018-09-05T08:44:37.542Z,67.22
2018-09-05T08:45:37.803Z,68.07
2018-09-05T08:46:37.499Z,67.74
2018-09-05T08:47:37.592Z,66.14
2018-09-05T08:48:37.940Z,65.29
2018-09-05T08:49:37.560Z,64.87
2018-09-05T08:50:37.537Z,64.87
2018-09-05T08:51:37.566Z,65.00
2018-09-05T08:52:37.644Z,63.46
2018-09-05T08:53:37.610Z,63.85
2018-09-05T08:54:37.578Z,63.78
2018-09-05T08:55:37.654Z,62.84
2018-09-05T08:56:37.643Z,60.94
2018-09-05T08:57:37.742Z,62.22
2018-09-05T08:58:37.749Z,66.17
2018-09-05T08:59:37.712Z,68.07
2018-09-05T09:00:37.730Z,66.76
2018-09-05T09:01:37.709Z,64.31
2018-09-05T09:02:37.954Z,64.64
2018-09-05T09:03:37.758Z,65.88
2018-09-05T09:04:37.793Z,65.23
2018-09-05T09:05:37.778Z,66.76
2018-09-05T09:06:37.831Z,66.40
2018-09-05T09:07:37.788Z,64.58
2018-09-05T09:08:37.859Z,63.07
2018-09-05T09:09:38.451Z,62.37
2018-09-05T09:10:37.841Z,63.10
2018-09-05T09:11:37.921Z,63.46
2018-09-05T09:12:38.472Z,63.40
2018-09-05T09:13:38.032Z,63.62
2018-09-05T09:14:37.991Z,63.85
2018-09-05T09:15:37.948Z,62.15
2018-09-05T09:16:37.946Z,61.65
2018-09-05T09:17:37.964Z,62.28
2018-09-05T09:18:37.993Z,61.82
2018-09-05T09:19:38.037Z,62.61
2018-09-05T09:20:38.078Z,64.58
2018-09-05T09:21:38.079Z,64.37
2018-09-05T09:22:38.965Z,63.76
2018-09-05T09:23:38.090Z,63.89
2018-09-05T09:24:38.184Z,64.97
2018-09-05T09:25:38.114Z,66.60
2018-09-05T09:26:38.103Z,66.63
2018-09-05T09:27:38.205Z,67.77
2018-09-05T09:28:38.224Z,65.16
2018-09-05T09:29:38.184Z,64.34
2018-09-05T09:30:38.242Z,62.45
2018-09-05T09:31:38.261Z,62.78
2018-09-05T09:32:38.246Z,62.15
2018-09-05T09:33:38.248Z,61.23
2018-09-05T09:34:38.273Z,62.71
2018-09-05T09:35:38.367Z,61.99
2018-09-05T09:36:38.281Z,63.04
2018-09-05T09:37:38.301Z,61.04
2018-09-05T09:38:38.322Z,64.38
2018-09-05T09:39:38.388Z,64.37
2018-09-05T09:40:38.492Z,62.78
2018-09-05T09:41:38.430Z,63.43
2018-09-05T09:42:38.429Z,64.71
2018-09-05T09:43:38.564Z,67.22
2018-09-05T09:44:38.511Z,65.46
2018-09-05T09:45:38.492Z,68.16
2018-09-05T09:46:38.505Z,68.62
2018-09-05T09:47:38.474Z,66.40
2018-09-05T09:48:38.558Z,64.94
2018-09-05T09:49:38.558Z,62.35
2018-09-05T09:50:38.711Z,61.20
2018-09-05T09:51:38.875Z,61.76
2018-09-05T09:52:38.617Z,61.99
2018-09-05T09:53:38.644Z,63.11
2018-09-05T09:54:38.631Z,64.61
2018-09-05T09:55:38.659Z,63.10
2018-09-05T09:56:39.896Z,63.99
2018-09-05T09:57:38.731Z,64.97
2018-09-05T09:58:39.436Z,65.36
2018-09-05T09:59:39.741Z,63.89
2018-09-05T10:00:39.106Z,65.72
2018-09-05T10:01:38.770Z,64.38
2018-09-05T10:02:38.798Z,62.58
2018-09-05T10:03:38.985Z,62.98
2018-09-05T10:04:38.929Z,63.92
2018-09-05T10:05:38.907Z,64.84
2018-09-05T10:06:38.884Z,62.08
2018-09-05T10:07:38.883Z,60.58
2018-09-05T10:08:38.917Z,60.49
2018-09-05T10:09:38.951Z,60.82
2018-09-05T10:10:39.149Z,61.02
2018-09-05T10:11:39.028Z,60.61
2018-09-05T10:12:39.008Z,59.99
2018-09-05T10:13:39.006Z,58.25
2018-09-05T10:14:38.989Z,59.00
2018-09-05T10:15:39.053Z,59.62
2018-09-05T10:16:41.683Z,57.66
2018-09-05T10:17:39.129Z,57.68
2018-09-05T10:18:39.090Z,58.71
2018-09-05T10:19:39.128Z,57.59
2018-09-05T10:20:39.163Z,57.63
2018-09-05T10:21:39.192Z,60.46
2018-09-05T10:22:39.174Z,62.72
2018-09-05T10:23:39.203Z,62.95
2018-09-05T10:24:39.215Z,61.60
2018-09-05T10:25:39.265Z,62.39
2018-09-05T10:26:39.339Z,63.79
2018-09-05T10:27:39.756Z,63.86
2018-09-05T10:28:39.385Z,63.46
2018-09-05T10:29:39.518Z,62.72
2018-09-05T10:31:42.260Z,61.20
2018-09-05T10:32:39.361Z,61.04
2018-09-05T10:33:39.380Z,59.59
2018-09-05T10:34:39.383Z,59.62
2018-09-05T10:35:39.423Z,58.64
2018-09-05T10:36:39.422Z,59.99
2018-09-05T10:37:39.853Z,59.03
2018-09-05T10:38:39.586Z,57.88
2018-09-05T10:39:39.566Z,57.76
2018-09-05T10:40:39.494Z,56.80
2018-09-05T10:41:39.525Z,57.34
2018-09-05T10:42:40.529Z,58.62
2018-09-05T10:43:39.612Z,60.79
2018-09-05T10:44:39.585Z,59.48
2018-09-05T10:45:39.650Z,60.42
2018-09-05T10:46:42.463Z,59.01
2018-09-05T10:47:39.725Z,58.00
2018-09-05T10:48:40.025Z,57.63
2018-09-05T10:49:39.806Z,58.29
2018-09-05T10:50:39.774Z,58.62
2018-09-05T10:53:27.913Z,59.61
2018-09-05T10:54:12.838Z,61.18
2018-09-05T10:55:12.844Z,61.51
2018-09-05T10:56:12.878Z,60.63
2018-09-05T10:57:12.854Z,60.72
2018-09-05T10:58:13.882Z,61.47
2018-09-05T10:59:12.974Z,61.22
2018-09-05T11:00:13.006Z,62.76
2018-09-05T11:01:13.818Z,62.00
2018-09-05T11:02:13.016Z,62.06
2018-09-05T11:03:13.810Z,60.85
2018-09-05T11:04:13.065Z,60.52
2018-09-05T11:05:13.096Z,59.70
2018-09-05T11:06:13.059Z,58.09
2018-09-05T11:07:13.127Z,57.64
2018-09-05T11:08:13.341Z,59.35
2018-09-05T11:09:13.144Z,59.87
2018-09-05T11:10:13.157Z,59.55
2018-09-05T11:11:13.310Z,58.67
2018-09-05T11:12:13.226Z,60.00
2018-09-05T11:13:13.212Z,60.44
2018-09-05T11:14:13.264Z,61.02
2018-09-05T11:15:13.282Z,61.25
2018-09-05T11:16:13.219Z,61.02
2018-09-05T11:17:13.297Z,62.39
2018-09-05T11:18:13.227Z,63.02
2018-09-05T11:19:13.265Z,63.67
2018-09-05T11:20:13.317Z,63.38
2018-09-05T11:21:13.501Z,63.67
2018-09-05T11:22:13.381Z,63.48
2018-09-05T11:23:14.315Z,63.44
2018-09-05T11:24:13.361Z,64.42
2018-09-05T11:25:13.819Z,64.32
2018-09-05T11:26:13.393Z,64.09
2018-09-05T11:27:13.389Z,65.26
2018-09-05T11:28:13.610Z,66.93
2018-09-05T11:29:13.558Z,66.73
2018-09-05T11:30:13.537Z,66.56
2018-09-05T11:31:13.520Z,66.37
2018-09-05T11:32:14.878Z,67.18
2018-09-05T11:33:13.776Z,67.47
2018-09-05T11:34:13.629Z,67.05
2018-09-05T11:35:13.552Z,66.21
2018-09-05T11:36:13.580Z,67.73
2018-09-05T11:37:13.540Z,67.44
2018-09-05T11:38:13.510Z,66.69
2018-09-05T11:39:13.541Z,67.12
2018-09-05T11:40:13.616Z,66.83
2018-09-05T11:41:13.572Z,66.60
2018-09-05T11:42:13.572Z,67.38
2018-09-05T11:43:13.678Z,66.83
2018-09-05T11:44:13.608Z,66.83
2018-09-05T11:45:13.642Z,67.93
2018-09-05T11:46:13.676Z,65.53
2018-09-05T11:47:13.733Z,64.62
2018-09-05T11:48:13.753Z,64.52
2018-09-05T11:49:14.339Z,65.40
2018-09-05T11:50:13.799Z,64.42
2018-09-05T11:51:13.789Z,64.75
2018-09-05T11:52:13.817Z,66.96
2018-09-05T11:53:13.898Z,66.66
2018-09-05T11:54:14.550Z,67.67
2018-09-05T11:55:13.861Z,67.80
2018-09-05T11:56:13.801Z,65.40
2018-09-05T11:57:13.832Z,64.42
2018-09-05T11:58:13.765Z,64.36
2018-09-05T11:59:13.770Z,63.64
2018-09-05T12:00:13.887Z,63.45
2018-09-05T12:01:13.823Z,63.25
2018-09-05T12:02:13.840Z,64.75
2018-09-05T12:03:13.836Z,64.36
2018-09-05T12:04:13.794Z,61.69
2018-09-05T12:05:14.016Z,62.18
2018-09-05T12:06:13.995Z,63.64
2018-09-05T12:07:14.612Z,64.32
2018-09-05T12:08:13.848Z,64.62
2018-09-05T12:09:13.892Z,64.62
2018-09-05T12:10:13.905Z,64.29
2018-09-05T12:11:14.061Z,64.59
2018-09-05T12:12:13.961Z,64.84
2018-09-05T12:13:14.053Z,64.78
2018-09-05T12:14:13.946Z,65.56
2018-09-05T12:15:14.895Z,65.40
2018-09-05T12:16:13.950Z,64.84
2018-09-05T12:17:35.038Z,64.16
2018-09-05T12:18:13.962Z,62.41
2018-09-05T12:19:13.971Z,62.70
2018-09-05T12:20:14.116Z,63.67
2018-09-05T12:21:13.960Z,63.77
2018-09-05T12:22:14.001Z,62.60
2018-09-05T12:23:13.973Z,62.57
2018-09-05T12:24:13.997Z,62.73
2018-09-05T12:25:15.839Z,63.51
2018-09-05T12:26:15.651Z,63.71
2018-09-05T12:27:14.327Z,62.54
2018-09-05T12:28:14.055Z,62.63
2018-09-05T12:29:14.056Z,61.79
2018-09-05T12:30:14.012Z,62.63
2018-09-05T12:31:14.042Z,62.35
2018-09-05T12:32:14.039Z,62.15
2018-09-05T12:33:14.244Z,62.44
2018-09-05T12:34:14.179Z,62.63
2018-09-05T12:35:18.716Z,62.83
2018-09-05T12:36:15.488Z,61.57
2018-09-05T12:37:14.388Z,61.79
2018-09-05T12:38:15.227Z,59.26
2018-09-05T12:39:35.326Z,59.42
2018-09-05T12:40:14.204Z,59.33
2018-09-05T12:41:14.215Z,58.84
2018-09-05T12:42:14.197Z,58.25
2018-09-05T12:43:14.139Z,58.22
2018-09-05T12:44:14.181Z,59.03
2018-09-05T12:45:14.152Z,59.33
2018-09-05T12:46:15.596Z,59.72
2018-09-05T12:47:14.178Z,60.88
2018-09-05T12:48:14.211Z,61.66
2018-09-05T12:49:14.220Z,60.39
2018-09-05T12:50:14.192Z,61.93
2018-09-05T12:51:14.324Z,62.70
2018-09-05T12:52:14.275Z,63.29
2018-09-05T12:53:14.214Z,62.51
2018-09-05T12:54:14.258Z,60.85
2018-09-05T12:55:14.221Z,60.63
2018-09-05T12:56:14.220Z,60.24
2018-09-05T12:57:14.240Z,60.05
2018-09-05T12:58:14.270Z,60.14
2018-09-05T12:59:14.325Z,61.99
2018-09-05T13:00:14.259Z,62.87
2018-09-05T13:01:14.281Z,62.12
2018-09-05T13:02:14.308Z,62.57
2018-09-05T13:03:14.347Z,62.09
2018-09-05T13:04:14.282Z,62.57
2018-09-05T13:05:14.394Z,63.94
2018-09-05T13:06:14.305Z,62.74
2018-09-05T13:07:14.319Z,62.74
2018-09-05T13:08:14.328Z,62.84
2018-09-05T13:09:14.396Z,63.23
2018-09-05T13:10:14.369Z,64.04